Time;durP1;ratioP1;P1;durP2;ratioP2;P2;SDS_P1;SDS_P2;PMS_P1;PMS_P2;Temp;Humidity;BMP_temperature;BMP_pressure;BME280_temperature;BME280_humidity;BME280_pressure;Samples;Min_cycle;Max_cycle;Signal;HPM_P1;HPM_P2
2021/08/17 00:01:53;;;;;;;13.47;2.77;;;14.30;99.90;;;;;;4987163;28;20774;-64
2021/08/17 00:04:22;;;;;;;14.13;2.80;;;14.30;99.90;;;;;;4988250;28;20244;-64
2021/08/17 00:06:50;;;;;;;12.60;2.60;;;14.30;99.90;;;;;;4987568;28;20230;-64
2021/08/17 00:09:19;;;;;;;13.87;3.03;;;14.30;99.90;;;;;;4987832;28;20288;-64
2021/08/17 00:11:49;;;;;;;10.50;2.57;;;14.30;99.90;;;;;;4987023;28;20226;-64
2021/08/17 00:14:17;;;;;;;9.60;2.60;;;14.30;99.90;;;;;;4988007;28;20265;-64
2021/08/17 00:16:45;;;;;;;9.13;2.57;;;14.30;99.90;;;;;;4987444;28;20628;-64
2021/08/17 00:19:13;;;;;;;13.27;2.37;;;14.30;99.90;;;;;;4987577;28;20321;-64
2021/08/17 00:21:41;;;;;;;12.50;2.20;;;14.30;99.90;;;;;;4986955;28;20226;-64
2021/08/17 00:24:10;;;;;;;13.13;2.73;;;14.30;99.90;;;;;;4987308;28;20579;-64
2021/08/17 00:26:38;;;;;;;11.80;2.13;;;14.30;99.90;;;;;;4987627;28;20229;-64
2021/08/17 00:29:07;;;;;;;6.47;2.07;;;14.30;99.90;;;;;;4987786;28;20237;-64
2021/08/17 00:31:35;;;;;;;6.37;2.07;;;14.30;99.90;;;;;;4987718;28;20240;-63
2021/08/17 00:34:03;;;;;;;6.03;1.90;;;14.30;99.90;;;;;;4988555;28;20646;-64
2021/08/17 00:36:32;;;;;;;6.60;2.17;;;14.30;99.90;;;;;;4992140;28;20241;-64
2021/08/17 00:39:01;;;;;;;9.67;2.00;;;14.20;99.90;;;;;;4987388;28;20709;-64
2021/08/17 00:41:29;;;;;;;5.33;2.03;;;14.20;99.90;;;;;;4987699;28;20685;-64
2021/08/17 00:43:57;;;;;;;7.07;1.60;;;14.20;99.90;;;;;;4986254;28;20320;-64
2021/08/17 00:46:27;;;;;;;6.40;1.80;;;14.10;99.90;;;;;;4986932;28;20233;-64
2021/08/17 00:48:55;;;;;;;5.57;1.60;;;14.10;99.90;;;;;;4987524;28;20233;-64
2021/08/17 00:51:23;;;;;;;4.57;1.40;;;14.10;99.90;;;;;;4987233;28;20234;-64
2021/08/17 00:53:53;;;;;;;5.43;1.73;;;14.00;99.90;;;;;;4986992;28;20316;-64
2021/08/17 00:56:21;;;;;;;5.40;1.70;;;14.00;99.90;;;;;;4987551;28;20242;-64
2021/08/17 00:58:49;;;;;;;4.53;1.70;;;14.00;99.90;;;;;;4986595;28;20277;-64
2021/08/17 01:01:17;;;;;;;7.67;2.10;;;14.00;99.90;;;;;;4987410;28;20237;-64
2021/08/17 01:03:47;;;;;;;6.63;1.70;;;14.00;99.90;;;;;;4989096;28;20700;-64
2021/08/17 01:06:15;;;;;;;7.00;1.80;;;14.00;99.90;;;;;;4990080;28;20602;-64
2021/08/17 01:08:43;;;;;;;7.30;1.60;;;14.00;99.90;;;;;;4986801;28;20237;-64
2021/08/17 01:11:13;;;;;;;7.70;1.90;;;14.00;99.90;;;;;;4977298;28;20270;-64
2021/08/17 01:13:41;;;;;;;6.93;1.90;;;14.00;99.90;;;;;;4986235;28;20236;-64
2021/08/17 01:16:09;;;;;;;7.40;2.07;;;14.00;99.90;;;;;;4987216;28;20237;-64
2021/08/17 01:18:37;;;;;;;6.20;1.90;;;14.10;99.90;;;;;;4987158;28;20246;-64
2021/08/17 01:21:08;;;;;;;7.00;1.97;;;14.10;99.90;;;;;;4987217;28;20238;-64
2021/08/17 01:23:36;;;;;;;6.07;2.07;;;14.00;99.90;;;;;;4986325;28;20262;-64
2021/08/17 01:26:06;;;;;;;6.50;2.20;;;14.00;99.90;;;;;;4987516;28;20237;-64
2021/08/17 01:28:34;;;;;;;6.80;2.17;;;14.00;99.90;;;;;;4983804;28;20641;-64
2021/08/17 01:31:04;;;;;;;5.77;2.00;;;14.00;99.90;;;;;;4986757;28;20576;-64
2021/08/17 01:33:35;;;;;;;6.63;2.23;;;14.10;99.90;;;;;;4988801;28;20230;-64
2021/08/17 01:36:04;;;;;;;9.07;2.00;;;14.20;99.90;;;;;;4975864;28;20309;-64
2021/08/17 01:38:32;;;;;;;11.23;3.10;;;14.20;99.90;;;;;;4990088;28;20294;-64
2021/08/17 01:41:00;;;;;;;8.97;2.40;;;14.20;99.90;;;;;;4989845;28;20311;-64
2021/08/17 01:43:30;;;;;;;7.40;2.50;;;14.20;99.90;;;;;;4984275;28;20248;-64
2021/08/17 01:45:59;;;;;;;10.03;2.50;;;14.20;99.90;;;;;;4990811;28;20269;-64
2021/08/17 01:48:30;;;;;;;11.00;3.23;;;14.30;99.90;;;;;;4990124;28;20237;-64
2021/08/17 01:50:59;;;;;;;11.77;2.87;;;14.30;99.90;;;;;;4990717;28;20237;-64
2021/08/17 01:53:28;;;;;;;13.87;3.23;;;14.30;99.90;;;;;;4989152;28;20248;-64
2021/08/17 01:55:58;;;;;;;10.87;3.33;;;14.30;99.90;;;;;;4988839;28;20242;-64
2021/08/17 01:58:27;;;;;;;15.60;3.87;;;14.20;99.90;;;;;;4989289;28;20252;-64
2021/08/17 02:00:57;;;;;;;12.77;3.53;;;14.20;99.90;;;;;;4988090;28;20261;-64
2021/08/17 02:03:25;;;;;;;14.70;3.80;;;14.30;99.90;;;;;;4987495;28;20261;-64
2021/08/17 02:05:53;;;;;;;12.80;4.60;;;14.30;99.90;;;;;;4988332;28;20245;-64
2021/08/17 02:08:21;;;;;;;14.43;3.77;;;14.20;99.90;;;;;;4985202;28;20230;-64
2021/08/17 02:10:49;;;;;;;12.77;3.47;;;14.30;99.90;;;;;;4985886;28;20240;-64
2021/08/17 02:13:18;;;;;;;12.00;3.97;;;14.30;99.90;;;;;;4979808;28;20230;-64
2021/08/17 02:15:46;;;;;;;11.27;3.07;;;14.30;99.90;;;;;;4987125;28;20265;-64
2021/08/17 02:18:16;;;;;;;12.47;3.27;;;14.30;99.90;;;;;;4986610;28;20233;-64
2021/08/17 02:20:45;;;;;;;9.97;3.43;;;14.40;99.90;;;;;;4986523;28;20320;-64
2021/08/17 02:23:13;;;;;;;14.03;3.93;;;14.40;99.90;;;;;;4986344;28;20237;-64
2021/08/17 02:25:41;;;;;;;12.37;3.50;;;14.40;99.90;;;;;;4986852;28;20264;-64
2021/08/17 02:28:09;;;;;;;15.03;4.10;;;14.40;99.90;;;;;;4986925;28;20226;-64
2021/08/17 02:30:38;;;;;;;16.73;4.20;;;14.40;99.90;;;;;;4987297;28;20320;-64
2021/08/17 02:33:07;;;;;;;13.20;3.13;;;14.30;99.90;;;;;;4986797;28;20230;-64
2021/08/17 02:35:36;;;;;;;11.73;3.10;;;14.30;99.90;;;;;;4987010;28;20265;-64
2021/08/17 02:38:05;;;;;;;12.03;4.10;;;14.30;99.90;;;;;;4987938;28;20234;-64
2021/08/17 02:40:33;;;;;;;14.20;3.83;;;14.40;99.90;;;;;;4987661;28;20237;-64
2021/08/17 02:43:02;;;;;;;10.83;3.50;;;14.40;99.90;;;;;;4987862;28;20240;-64
2021/08/17 02:45:30;;;;;;;11.90;4.27;;;14.50;99.90;;;;;;4988818;28;20313;-64
2021/08/17 02:48:00;;;;;;;11.93;3.00;;;14.40;99.90;;;;;;4988491;28;20299;-64
2021/08/17 02:50:29;;;;;;;10.57;3.03;;;14.50;99.90;;;;;;4988912;28;20245;-64
2021/08/17 02:52:58;;;;;;;11.87;3.10;;;14.50;99.90;;;;;;4988300;28;20230;-64
2021/08/17 02:55:27;;;;;;;15.47;3.87;;;14.50;99.90;;;;;;4988566;28;20718;-64
2021/08/17 02:57:57;;;;;;;16.07;3.53;;;14.50;99.90;;;;;;4988826;28;20245;-64
2021/08/17 03:00:25;;;;;;;10.20;3.70;;;14.50;99.90;;;;;;4987979;28;20265;-64
2021/08/17 03:02:53;;;;;;;13.97;3.40;;;14.50;99.90;;;;;;4988189;28;20329;-64
2021/08/17 03:05:21;;;;;;;13.90;3.20;;;14.60;99.90;;;;;;4988736;28;20741;-64
2021/08/17 03:07:52;;;;;;;11.67;3.47;;;14.50;99.90;;;;;;4988800;28;20558;-64
2021/08/17 03:10:24;;;;;;;9.90;3.30;;;14.50;99.90;;;;;;4988573;28;20241;-64
2021/08/17 03:12:52;;;;;;;7.93;3.07;;;14.50;99.90;;;;;;4987619;28;20245;-64
2021/08/17 03:15:21;;;;;;;7.70;2.70;;;14.40;99.90;;;;;;4988619;28;20348;-64
2021/08/17 03:17:49;;;;;;;9.37;2.57;;;14.30;99.90;;;;;;4988530;28;20320;-64
2021/08/17 03:20:19;;;;;;;11.07;2.63;;;14.20;99.90;;;;;;4986250;28;20241;-64
2021/08/17 03:22:47;;;;;;;10.30;2.83;;;14.20;99.90;;;;;;4987789;28;20324;-64
2021/08/17 03:25:19;;;;;;;7.23;2.67;;;14.10;99.90;;;;;;4985064;28;20230;-64
2021/08/17 03:27:49;;;;;;;10.77;3.43;;;14.10;99.90;;;;;;4987779;28;20252;-64
2021/08/17 03:30:21;;;;;;;8.37;2.47;;;14.10;99.90;;;;;;4985158;28;20269;-64
2021/08/17 03:32:50;;;;;;;5.80;2.40;;;14.10;99.90;;;;;;4987490;28;20568;-64
2021/08/17 03:35:18;;;;;;;9.77;3.40;;;14.20;99.90;;;;;;4984341;28;20234;-64
2021/08/17 03:37:47;;;;;;;10.40;2.60;;;14.30;99.90;;;;;;4987645;28;20354;-64
2021/08/17 03:40:18;;;;;;;11.00;3.00;;;14.30;99.90;;;;;;4988101;28;20234;-64
2021/08/17 03:42:49;;;;;;;9.33;2.60;;;14.30;99.90;;;;;;4987388;28;20245;-64
2021/08/17 03:45:19;;;;;;;9.80;2.67;;;14.40;99.90;;;;;;4980405;28;20275;-64
2021/08/17 03:47:47;;;;;;;11.13;3.00;;;14.40;99.90;;;;;;4992757;28;20716;-64
2021/08/17 03:50:17;;;;;;;10.63;3.17;;;14.30;99.90;;;;;;4991335;28;20296;-64
2021/08/17 03:52:46;;;;;;;10.17;2.93;;;14.30;99.90;;;;;;4987251;28;20304;-64
2021/08/17 03:55:19;;;;;;;9.03;2.90;;;14.30;99.90;;;;;;4985851;28;20254;-64
2021/08/17 03:57:49;;;;;;;11.90;2.97;;;14.40;99.90;;;;;;4987661;28;20241;-64
2021/08/17 04:00:25;;;;;;;8.27;2.73;;;14.30;99.90;;;;;;4984858;28;20308;-64
2021/08/17 04:02:53;;;;;;;7.00;2.50;;;14.30;99.90;;;;;;4986879;28;20248;-64
2021/08/17 04:05:22;;;;;;;10.73;2.90;;;14.40;99.90;;;;;;4988000;28;20246;-64
2021/08/17 04:07:50;;;;;;;8.53;2.53;;;14.40;99.90;;;;;;4987464;28;20245;-64
2021/08/17 04:10:21;;;;;;;11.37;3.13;;;14.40;99.90;;;;;;4981189;28;20609;-64
2021/08/17 04:12:51;;;;;;;8.83;3.20;;;14.40;99.90;;;;;;4987009;28;20622;-64
2021/08/17 04:15:19;;;;;;;8.67;2.97;;;14.40;99.90;;;;;;4987255;28;20229;-64
2021/08/17 04:17:47;;;;;;;12.43;3.80;;;14.40;99.90;;;;;;4987022;28;20250;-64
2021/08/17 04:20:16;;;;;;;13.73;3.80;;;14.40;99.90;;;;;;4987690;28;20234;-64
2021/08/17 04:22:44;;;;;;;11.03;3.60;;;14.50;99.90;;;;;;4982900;28;20673;-64
2021/08/17 04:25:15;;;;;;;14.63;3.90;;;14.50;99.90;;;;;;4987123;28;20226;-64
2021/08/17 04:27:43;;;;;;;10.13;3.70;;;14.40;99.90;;;;;;4987098;28;20238;-64
2021/08/17 04:30:13;;;;;;;15.30;4.30;;;14.50;99.90;;;;;;4986953;28;20226;-64
2021/08/17 04:32:41;;;;;;;14.63;4.17;;;14.50;99.90;;;;;;4986207;28;20328;-64
2021/08/17 04:35:10;;;;;;;13.03;3.97;;;14.50;99.90;;;;;;4987168;28;20237;-64
2021/08/17 04:37:39;;;;;;;13.50;3.80;;;14.50;99.90;;;;;;4987567;28;20586;-64
2021/08/17 04:40:08;;;;;;;16.27;4.47;;;14.60;99.90;;;;;;4987393;28;20238;-64
2021/08/17 04:42:36;;;;;;;13.03;4.17;;;14.60;99.90;;;;;;4986352;28;20253;-64
2021/08/17 04:45:05;;;;;;;15.60;3.80;;;14.70;99.90;;;;;;4987283;28;20729;-64
2021/08/17 04:47:35;;;;;;;15.37;3.33;;;14.60;99.90;;;;;;4986695;28;20570;-64
2021/08/17 04:50:03;;;;;;;15.17;4.10;;;14.60;99.90;;;;;;4987242;28;20234;-64
2021/08/17 04:52:31;;;;;;;14.37;3.80;;;14.60;99.90;;;;;;4986586;28;20242;-64
2021/08/17 04:54:59;;;;;;;13.63;3.50;;;14.60;99.90;;;;;;4987643;28;20237;-64
2021/08/17 04:57:27;;;;;;;15.90;3.33;;;14.60;99.90;;;;;;4987031;28;20234;-64
2021/08/17 04:59:55;;;;;;;9.90;2.97;;;14.60;99.90;;;;;;4986974;28;20726;-64
2021/08/17 05:02:23;;;;;;;11.67;3.20;;;14.60;99.90;;;;;;4979730;28;20602;-64
2021/08/17 05:04:53;;;;;;;7.53;2.67;;;14.60;99.90;;;;;;4986762;28;20241;-63
2021/08/17 05:07:21;;;;;;;11.77;2.90;;;14.70;99.90;;;;;;4988076;28;20598;-64
2021/08/17 05:09:49;;;;;;;8.30;2.90;;;14.60;99.90;;;;;;5007591;28;20237;-64
2021/08/17 05:12:17;;;;;;;13.93;3.20;;;14.70;99.90;;;;;;5015743;28;20767;-64
2021/08/17 05:14:45;;;;;;;12.60;3.33;;;14.80;99.90;;;;;;5018773;28;20237;-64
2021/08/17 05:17:13;;;;;;;12.37;3.40;;;14.80;99.90;;;;;;5019240;28;20233;-64
2021/08/17 05:19:42;;;;;;;13.20;3.10;;;14.80;99.90;;;;;;5018574;28;20593;-64
2021/08/17 05:22:11;;;;;;;12.47;3.10;;;14.90;99.90;;;;;;5019868;28;20255;-64
2021/08/17 05:24:39;;;;;;;16.33;3.93;;;14.90;99.90;;;;;;5019373;28;20719;-64
2021/08/17 05:27:08;;;;;;;15.77;3.60;;;14.90;99.90;;;;;;5018850;28;20682;-64
2021/08/17 05:29:36;;;;;;;10.47;3.40;;;14.80;99.90;;;;;;5019432;28;20240;-64
2021/08/17 05:32:05;;;;;;;14.83;4.23;;;14.90;99.90;;;;;;5017394;28;20601;-64
2021/08/17 05:34:34;;;;;;;14.30;3.43;;;15.00;99.90;;;;;;5009113;28;20244;-64
2021/08/17 05:37:02;;;;;;;16.93;4.17;;;15.10;99.90;;;;;;5008069;28;20295;-64
2021/08/17 05:39:32;;;;;;;12.17;4.03;;;15.10;99.90;;;;;;5008551;28;20233;-64
2021/08/17 05:42:00;;;;;;;13.03;3.70;;;15.20;99.90;;;;;;5009378;28;20343;-64
2021/08/17 05:44:28;;;;;;;14.63;4.03;;;15.20;99.90;;;;;;5009320;28;20790;-64
2021/08/17 05:46:59;;;;;;;15.87;4.00;;;15.20;99.90;;;;;;5007526;28;20264;-64
2021/08/17 05:49:27;;;;;;;14.20;3.67;;;15.20;99.90;;;;;;5007963;28;20697;-65
2021/08/17 05:51:55;;;;;;;12.57;4.00;;;15.20;99.90;;;;;;5009746;28;20244;-65
2021/08/17 05:54:24;;;;;;;11.67;4.10;;;15.10;99.90;;;;;;5007001;28;20241;-65
2021/08/17 05:56:53;;;;;;;11.80;3.67;;;15.10;99.90;;;;;;5007023;28;20229;-65
2021/08/17 05:59:23;;;;;;;13.93;3.83;;;15.10;99.90;;;;;;5007895;28;20320;-65
2021/08/17 06:01:51;;;;;;;10.10;3.40;;;15.10;99.90;;;;;;5003170;28;20506;-65
2021/08/17 06:04:19;;;;;;;14.23;3.60;;;15.10;99.90;;;;;;4999964;28;20233;-65
2021/08/17 06:06:48;;;;;;;8.10;3.30;;;15.10;99.90;;;;;;5004401;28;20225;-65
2021/08/17 06:09:16;;;;;;;12.63;3.90;;;15.10;99.90;;;;;;5007941;28;20237;-65
2021/08/17 06:11:44;;;;;;;7.20;3.23;;;15.10;99.90;;;;;;5008562;28;20237;-65
2021/08/17 06:14:14;;;;;;;7.83;3.07;;;15.10;99.90;;;;;;5008474;28;20731;-65
2021/08/17 06:16:43;;;;;;;8.50;2.60;;;15.10;99.90;;;;;;5008951;28;20237;-65
2021/08/17 06:19:11;;;;;;;7.10;2.73;;;15.00;99.90;;;;;;5008470;28;20773;-65
2021/08/17 06:21:39;;;;;;;7.07;2.60;;;14.90;99.90;;;;;;4989637;28;20663;-65
2021/08/17 06:24:08;;;;;;;7.27;2.30;;;14.90;99.90;;;;;;4988876;28;20230;-65
2021/08/17 06:26:39;;;;;;;5.40;2.30;;;14.90;99.90;;;;;;4989590;28;20238;-65
2021/08/17 06:29:07;;;;;;;6.00;2.47;;;14.80;99.90;;;;;;4985830;28;20236;-63
2021/08/17 06:31:37;;;;;;;6.07;2.33;;;14.80;99.90;;;;;;5009419;28;20596;-62
2021/08/17 06:34:05;;;;;;;5.13;2.40;;;14.80;99.90;;;;;;5008346;28;20319;-64
2021/08/17 06:36:35;;;;;;;4.63;2.20;;;14.80;99.90;;;;;;5008396;28;20229;-62
2021/08/17 06:39:04;;;;;;;5.27;2.23;;;14.90;99.90;;;;;;5008340;28;20263;-63
2021/08/17 06:41:33;;;;;;;5.70;2.33;;;14.80;99.90;;;;;;5008071;28;20264;-62
2021/08/17 06:44:01;;;;;;;7.53;3.20;;;14.80;99.90;;;;;;5007498;28;20229;-63
2021/08/17 06:46:30;;;;;;;5.83;2.20;;;14.80;99.90;;;;;;5008088;28;20245;-62
2021/08/17 06:49:00;;;;;;;6.90;2.80;;;14.90;99.90;;;;;;5007690;28;20407;-62
2021/08/17 06:51:28;;;;;;;8.33;2.60;;;14.90;99.90;;;;;;5008297;28;20720;-63
2021/08/17 06:53:56;;;;;;;6.23;2.40;;;14.90;99.90;;;;;;5007366;28;20233;-64
2021/08/17 06:56:24;;;;;;;5.97;2.50;;;14.80;99.90;;;;;;5009303;28;20845;-62
2021/08/17 06:58:52;;;;;;;6.90;3.00;;;14.90;99.90;;;;;;5009237;28;20740;-62
2021/08/17 07:01:20;;;;;;;12.70;3.27;;;14.90;99.90;;;;;;5011558;28;20237;-61
2021/08/17 07:03:51;;;;;;;8.83;3.37;;;15.00;99.90;;;;;;5007507;28;20235;-63
2021/08/17 07:06:20;;;;;;;10.63;3.07;;;15.10;99.90;;;;;;5017159;28;20796;-62
2021/08/17 07:08:49;;;;;;;9.83;3.20;;;15.10;99.90;;;;;;5014704;28;20235;-61
2021/08/17 07:11:17;;;;;;;8.23;2.77;;;15.10;99.90;;;;;;5018465;28;20291;-62
2021/08/17 07:13:45;;;;;;;10.70;3.27;;;15.00;99.90;;;;;;5017651;28;20687;-61
2021/08/17 07:16:13;;;;;;;9.40;3.30;;;15.10;99.90;;;;;;5017635;28;20241;-62
2021/08/17 07:18:41;;;;;;;9.03;3.40;;;15.10;99.90;;;;;;5008628;28;20237;-63
2021/08/17 07:21:09;;;;;;;8.57;3.23;;;15.10;99.90;;;;;;5008128;28;20237;-63
2021/08/17 07:23:39;;;;;;;11.73;3.77;;;15.10;99.90;;;;;;5007166;28;20229;-63
2021/08/17 07:26:07;;;;;;;10.23;3.70;;;15.10;99.90;;;;;;5008251;28;20911;-61
2021/08/17 07:28:35;;;;;;;9.03;3.27;;;15.20;99.90;;;;;;5007818;28;20253;-63
2021/08/17 07:31:04;;;;;;;11.73;3.60;;;15.20;99.90;;;;;;5007289;28;20238;-62
2021/08/17 07:33:32;;;;;;;10.93;4.20;;;15.10;99.90;;;;;;5007875;28;20240;-62
2021/08/17 07:36:00;;;;;;;9.20;3.90;;;15.10;99.90;;;;;;5016684;28;20244;-62
2021/08/17 07:38:28;;;;;;;8.57;3.57;;;15.00;99.90;;;;;;4999095;28;20253;-62
2021/08/17 07:40:57;;;;;;;11.50;4.13;;;15.00;99.90;;;;;;4998299;28;20298;-63
2021/08/17 07:43:26;;;;;;;11.10;3.47;;;15.00;99.90;;;;;;4997251;28;20237;-62
2021/08/17 07:45:58;;;;;;;9.60;3.87;;;15.00;99.90;;;;;;4996539;28;20338;-63
2021/08/17 07:48:42;;;;;;;12.00;4.17;;;15.00;99.90;;;;;;4997174;28;20857;-61
2021/08/17 07:51:10;;;;;;;10.80;3.70;;;15.00;99.90;;;;;;4996783;28;20240;-61
2021/08/17 07:53:38;;;;;;;13.60;3.70;;;15.00;99.90;;;;;;4997966;28;20280;-63
2021/08/17 07:56:08;;;;;;;13.83;3.90;;;15.00;99.90;;;;;;4997701;28;20244;-63
2021/08/17 07:58:36;;;;;;;12.67;4.40;;;15.00;99.90;;;;;;4977464;28;21010;-61
2021/08/17 08:01:04;;;;;;;10.23;3.77;;;15.10;99.90;;;;;;4976230;28;20245;-63
2021/08/17 08:03:33;;;;;;;13.10;4.23;;;15.00;99.90;;;;;;4975116;28;20249;-63
2021/08/17 08:06:04;;;;;;;14.40;4.23;;;15.10;99.90;;;;;;4974423;28;20238;-63
2021/08/17 08:08:32;;;;;;;16.00;4.20;;;15.10;99.90;;;;;;4975280;28;20332;-62
2021/08/17 08:11:00;;;;;;;13.17;3.97;;;15.10;99.90;;;;;;4981939;28;20257;-62
2021/08/17 08:13:29;;;;;;;12.87;4.30;;;15.10;99.90;;;;;;4984731;28;20242;-62
2021/08/17 08:16:01;;;;;;;15.37;4.00;;;15.10;99.90;;;;;;4979893;28;20249;-61
2021/08/17 08:18:29;;;;;;;14.17;3.90;;;15.10;99.90;;;;;;4982154;28;20975;-62
2021/08/17 08:20:58;;;;;;;16.87;4.37;;;15.10;99.90;;;;;;4983026;28;20793;-62
2021/08/17 08:23:26;;;;;;;15.00;3.73;;;15.10;99.90;;;;;;4982251;28;20329;-62
2021/08/17 08:25:54;;;;;;;14.37;4.13;;;15.10;99.90;;;;;;4989397;28;20225;-62
2021/08/17 08:28:22;;;;;;;13.27;4.10;;;15.10;99.90;;;;;;4989297;28;20238;-62
2021/08/17 08:30:55;;;;;;;15.87;4.13;;;15.10;99.90;;;;;;4980517;28;20241;-63
2021/08/17 08:33:23;;;;;;;12.27;3.70;;;15.10;99.90;;;;;;4983533;28;20238;-62
2021/08/17 08:35:51;;;;;;;14.57;3.83;;;15.10;99.90;;;;;;4982658;28;20503;-63
2021/08/17 08:38:19;;;;;;;15.30;3.90;;;15.10;99.90;;;;;;4987492;28;20779;-63
2021/08/17 08:40:50;;;;;;;15.10;3.77;;;15.10;99.90;;;;;;4987396;28;20271;-62
2021/08/17 08:43:20;;;;;;;14.07;3.73;;;15.00;99.90;;;;;;4993461;28;20324;-63
2021/08/17 08:45:49;;;;;;;14.27;4.23;;;15.00;99.90;;;;;;4989655;28;20317;-62
2021/08/17 08:48:23;;;;;;;13.47;4.10;;;15.00;99.90;;;;;;4990400;28;20244;-63
2021/08/17 08:50:52;;;;;;;15.40;3.90;;;15.00;99.90;;;;;;4991847;28;20710;-63
2021/08/17 08:53:22;;;;;;;13.03;3.87;;;15.10;99.90;;;;;;4993384;28;20260;-63
2021/08/17 08:55:51;;;;;;;11.40;4.07;;;15.10;99.90;;;;;;4995395;28;20229;-63
2021/08/17 08:58:19;;;;;;;13.00;4.10;;;15.20;99.90;;;;;;4995749;28;20343;-61
2021/08/17 09:00:47;;;;;;;11.80;3.50;;;15.20;99.90;;;;;;4995256;28;20622;-63
2021/08/17 09:03:16;;;;;;;10.80;3.10;;;15.20;99.90;;;;;;4995559;28;20321;-61
2021/08/17 09:05:53;;;;;;;13.80;3.83;;;15.10;99.90;;;;;;4993914;28;20233;-62
2021/08/17 09:08:29;;;;;;;18.17;3.80;;;15.10;99.90;;;;;;4986853;28;20241;-62
2021/08/17 09:11:15;;;;;;;15.27;3.87;;;15.10;99.90;;;;;;4984922;28;20245;-62
2021/08/17 09:13:43;;;;;;;11.63;4.13;;;15.10;99.90;;;;;;4992182;28;20239;-62
2021/08/17 09:16:29;;;;;;;13.50;4.00;;;15.00;99.90;;;;;;4990100;28;20245;-63
2021/08/17 09:18:58;;;;;;;15.00;3.70;;;15.00;99.90;;;;;;4987218;28;20363;-62
2021/08/17 09:21:35;;;;;;;14.17;3.33;;;15.00;99.90;;;;;;4991086;28;20627;-62
2021/08/17 09:24:14;;;;;;;17.73;3.70;;;15.00;99.90;;;;;;4994870;28;20352;-63
2021/08/17 09:26:47;;;;;;;13.70;3.60;;;14.90;99.90;;;;;;5012445;28;20252;-62
2021/08/17 09:29:24;;;;;;;9.00;3.10;;;15.00;99.90;;;;;;5007132;28;20233;-62
2021/08/17 09:31:53;;;;;;;10.97;3.70;;;15.00;99.90;;;;;;5007282;28;20259;-62
2021/08/17 09:34:24;;;;;;;12.27;3.13;;;15.10;99.90;;;;;;5012145;28;20244;-63
2021/08/17 09:36:54;;;;;;;10.23;3.87;;;15.20;99.90;;;;;;5016223;28;20261;-62
2021/08/17 09:39:31;;;;;;;14.07;4.17;;;15.30;99.90;;;;;;5014986;28;20228;-62
2021/08/17 09:42:24;;;;;;;13.57;3.50;;;15.30;99.90;;;;;;5016175;28;20267;-63
2021/08/17 09:45:11;;;;;;;10.77;3.77;;;15.30;99.90;;;;;;5016156;28;20237;-63
2021/08/17 09:47:42;;;;;;;9.97;3.57;;;15.30;99.90;;;;;;5011954;28;20228;-63
2021/08/17 09:50:22;;;;;;;13.77;3.63;;;15.30;99.90;;;;;;5011173;28;20306;-62
2021/08/17 09:53:06;;;;;;;13.33;3.63;;;15.20;99.90;;;;;;5011509;28;20263;-63
2021/08/17 09:55:41;;;;;;;8.40;3.23;;;15.20;99.90;;;;;;5010144;28;20264;-62
2021/08/17 09:58:24;;;;;;;9.97;3.40;;;15.20;99.90;;;;;;5013505;28;20267;-63
2021/08/17 10:00:54;;;;;;;9.70;2.83;;;15.20;99.90;;;;;;5012271;28;20773;-62
2021/08/17 10:03:25;;;;;;;11.60;3.00;;;15.30;99.90;;;;;;5008816;28;20755;-62
2021/08/17 10:05:54;;;;;;;9.30;3.10;;;15.40;99.90;;;;;;5006415;28;20736;-63
2021/08/17 10:08:27;;;;;;;9.57;3.87;;;15.50;99.90;;;;;;5004774;28;20709;-62
2021/08/17 10:10:56;;;;;;;12.10;3.43;;;15.50;99.90;;;;;;5018165;28;20228;-62
2021/08/17 10:13:27;;;;;;;10.13;3.40;;;15.60;99.90;;;;;;5013386;28;20263;-63
2021/08/17 10:15:56;;;;;;;16.67;3.37;;;15.70;99.90;;;;;;5020181;28;20597;-62
2021/08/17 10:18:27;;;;;;;12.50;3.13;;;15.80;99.90;;;;;;5015314;28;20260;-63
2021/08/17 10:20:59;;;;;;;11.77;2.97;;;15.90;99.90;;;;;;5016247;28;20320;-61
2021/08/17 10:23:28;;;;;;;11.97;3.40;;;16.00;99.90;;;;;;5013975;28;20307;-61
2021/08/17 10:26:01;;;;;;;14.07;3.07;;;16.00;99.90;;;;;;5015933;28;20708;-62
2021/08/17 10:28:33;;;;;;;13.37;3.20;;;16.10;99.90;;;;;;5013825;28;20251;-61
2021/08/17 10:31:22;;;;;;;12.57;2.83;;;16.10;99.90;;;;;;5014326;28;20702;-62
2021/08/17 10:33:53;;;;;;;11.27;3.07;;;16.10;99.90;;;;;;5012392;28;20383;-61
2021/08/17 10:36:33;;;;;;;12.23;3.23;;;16.30;99.90;;;;;;5010642;28;20237;-62
2021/08/17 10:39:08;;;;;;;9.90;3.20;;;16.30;99.90;;;;;;5010541;28;20246;-62
2021/08/17 10:41:38;;;;;;;9.37;3.00;;;16.30;99.90;;;;;;5013997;28;20264;-63
2021/08/17 10:44:22;;;;;;;9.63;3.00;;;16.30;99.90;;;;;;5004506;28;20315;-62
2021/08/17 10:47:02;;;;;;;11.67;3.13;;;16.20;99.90;;;;;;5003788;28;20242;-61
2021/08/17 10:49:48;;;;;;;13.33;3.63;;;16.20;99.90;;;;;;5001328;28;20273;-63
2021/08/17 10:52:37;;;;;;;9.07;3.07;;;16.20;99.90;;;;;;4998076;28;20260;-62
2021/08/17 10:55:34;;;;;;;8.53;3.30;;;16.30;99.90;;;;;;5005719;28;20320;-62
2021/08/17 10:58:05;;;;;;;9.90;2.93;;;16.40;99.90;;;;;;5001795;28;20255;-62
2021/08/17 11:00:49;;;;;;;12.38;3.50;;;16.40;99.90;;;;;;2702586;28;10002360;-63
2021/08/17 11:03:43;;;;;;;9.50;3.07;;;16.60;99.90;;;;;;3621294;28;10001462;-62
2021/08/17 11:06:34;;;;;;;14.03;3.17;;;16.60;99.90;;;;;;5005677;28;20500;-63
2021/08/17 11:09:03;;;;;;;13.07;3.80;;;16.50;99.90;;;;;;5004924;28;20637;-62
2021/08/17 11:11:34;;;;;;;10.23;3.90;;;16.20;99.90;;;;;;5004422;28;20669;-61
2021/08/17 11:14:04;;;;;;;11.30;3.87;;;16.10;99.90;;;;;;5004761;28;20245;-62
2021/08/17 11:16:33;;;;;;;12.07;3.90;;;16.10;99.90;;;;;;5004226;28;20768;-62
2021/08/17 11:19:03;;;;;;;12.73;3.80;;;16.20;99.90;;;;;;5005454;28;20241;-61
2021/08/17 11:21:37;;;;;;;13.20;4.87;;;16.30;99.90;;;;;;5004944;28;20778;-61
2021/08/17 11:24:25;;;;;;;10.73;3.27;;;16.30;99.90;;;;;;5004505;28;20234;-62
2021/08/17 11:26:59;;;;;;;12.47;4.00;;;16.30;99.90;;;;;;5004514;28;20233;-61
2021/08/17 11:29:33;;;;;;;13.57;3.63;;;16.40;99.90;;;;;;5004768;28;20723;-61
2021/08/17 11:32:04;;;;;;;13.37;4.27;;;16.60;99.90;;;;;;5004754;28;20245;-62
2021/08/17 11:34:35;;;;;;;10.93;4.23;;;16.70;99.90;;;;;;5004504;28;20256;-62
2021/08/17 11:37:06;;;;;;;12.03;3.80;;;16.70;99.90;;;;;;5002797;28;20261;-62
2021/08/17 11:39:37;;;;;;;10.90;3.50;;;16.80;99.90;;;;;;5004255;28;20272;-62
2021/08/17 11:42:12;;;;;;;11.90;3.60;;;17.00;99.90;;;;;;5004818;28;20283;-62
2021/08/17 11:44:41;;;;;;;13.40;3.67;;;17.30;99.90;;;;;;4984974;28;20254;-62
2021/08/17 11:47:11;;;;;;;11.63;3.80;;;17.40;99.90;;;;;;4988451;28;20486;-62
2021/08/17 11:49:40;;;;;;;14.37;3.67;;;17.50;99.90;;;;;;5004573;28;20675;-62
2021/08/17 11:52:12;;;;;;;8.03;3.50;;;17.40;99.90;;;;;;5004371;28;20337;-62
2021/08/17 11:54:52;;;;;;;14.23;3.93;;;17.40;99.90;;;;;;5004172;28;20332;-62
2021/08/17 11:57:27;;;;;;;8.93;3.70;;;17.50;99.90;;;;;;4985686;28;20265;-62
2021/08/17 11:59:56;;;;;;;8.10;3.63;;;17.70;99.90;;;;;;4984305;28;20340;-62
2021/08/17 12:02:26;;;;;;;13.30;4.37;;;17.90;99.90;;;;;;4989374;28;20242;-62
2021/08/17 12:04:57;;;;;;;11.70;4.00;;;18.20;99.90;;;;;;4989210;28;20301;-62
2021/08/17 12:07:27;;;;;;;14.97;3.90;;;18.30;99.90;;;;;;4984840;28;20332;-63
2021/08/17 12:09:55;;;;;;;14.83;3.70;;;18.30;99.90;;;;;;4984601;28;20600;-62
2021/08/17 12:12:57;;;;;;;12.30;3.77;;;18.40;99.90;;;;;;4984911;28;20684;-62
2021/08/17 12:15:31;;;;;;;11.27;3.90;;;18.10;99.90;;;;;;5003823;28;20726;-63
2021/08/17 12:18:04;;;;;;;14.20;4.10;;;17.60;99.90;;;;;;5003790;28;20303;-63
2021/08/17 12:20:33;;;;;;;12.03;4.30;;;17.40;99.90;;;;;;5003824;28;20296;-63
2021/08/17 12:23:15;;;;;;;11.20;4.30;;;17.40;99.90;;;;;;5003492;28;20582;-62
2021/08/17 12:25:43;;;;;;;10.23;4.03;;;17.60;99.90;;;;;;5002491;28;20314;-62
2021/08/17 12:28:25;;;;;;;11.23;4.50;;;17.70;99.90;;;;;;5003326;28;20813;-63
2021/08/17 12:31:07;;;;;;;15.00;4.27;;;17.90;99.90;;;;;;4984905;28;20270;-63
2021/08/17 12:33:35;;;;;;;12.57;4.03;;;17.80;99.90;;;;;;4978565;28;20319;-63
2021/08/17 12:36:03;;;;;;;13.33;4.90;;;17.50;99.90;;;;;;4983137;28;20244;-62
2021/08/17 12:38:38;;;;;;;12.20;4.17;;;17.30;99.90;;;;;;4982999;28;20587;-64
2021/08/17 12:41:07;;;;;;;10.80;4.43;;;17.30;99.90;;;;;;4983193;28;20274;-63
2021/08/17 12:43:42;;;;;;;11.40;4.37;;;17.40;99.90;;;;;;4989486;28;20242;-62
2021/08/17 12:46:14;;;;;;;7.80;4.10;;;17.50;99.90;;;;;;5009790;28;20607;-62
2021/08/17 12:48:47;;;;;;;12.40;4.43;;;17.50;99.90;;;;;;5002649;28;20265;-63
2021/08/17 12:51:21;;;;;;;12.23;4.90;;;17.60;99.90;;;;;;5002252;28;20270;-63
2021/08/17 12:53:49;;;;;;;12.80;4.70;;;17.60;99.90;;;;;;5002374;28;20679;-63
2021/08/17 12:56:17;;;;;;;12.70;5.00;;;17.50;99.90;;;;;;5010582;28;20255;-62
2021/08/17 12:58:48;;;;;;;15.33;5.40;;;17.20;99.90;;;;;;5009065;28;20259;-62